North Chelmsford, Massachusetts
Current Conditions -  °F | °C
As of 9:02 AM on Monday 24 Nov 2014 (Local Time) from KASH Reporting Station
Moderate Rain Moderate Rain  
Wind Chill: 57°   Ceiling: 900
Heat Index: 57°   Visibility: 1mi
Dew Point: 55°   Wind: 0mph
Humidity: 94%   Direction: NA
Pressure: 29.73"   Gusts: NA
Location:  42.64°N, 71.38°W
Report Text: KASH 241402Z 00000KT 1SM RA BR FEW002 OVC009 14/13 A2973 RMK AO2 CIG 005V013 P0000
Loading
Personal Weather Stations






























Interactive Weather Map New forecast layout! Learn more

10-Day Weather Forecast

Advertisements
Track Severe Weather on mobile